createdAt,value
2022-10-07T00:01:25.905Z,102842.97
2022-10-07T00:03:54.595Z,102842.13
2022-10-07T00:06:24.630Z,102799.19
2022-10-07T00:08:54.845Z,102802.81
2022-10-07T00:11:27.736Z,102805.25
2022-10-07T00:14:00.920Z,102769.69
2022-10-07T00:16:32.688Z,102827.63
2022-10-07T00:19:03.382Z,102825.13
2022-10-07T00:21:37.677Z,102815.97
2022-10-07T00:24:07.098Z,102783.13
2022-10-07T00:26:37.735Z,102817.63
2022-10-07T00:29:08.192Z,102763.13
2022-10-07T00:31:38.152Z,102798.81
2022-10-07T00:34:06.767Z,102787.16
2022-10-07T00:36:39.114Z,102810.06
2022-10-07T00:39:10.042Z,102787.63
2022-10-07T00:41:42.437Z,102803.25
2022-10-07T00:44:39.776Z,102809.59
2022-10-07T00:47:24.006Z,102806.28
2022-10-07T00:50:00.110Z,102804.13
2022-10-07T00:52:32.928Z,102800.75
2022-10-07T00:55:04.288Z,102755.84
2022-10-07T00:57:34.127Z,102695.81
2022-10-07T01:00:06.640Z,102788.22
2022-10-07T01:02:35.942Z,102794.28
2022-10-07T01:05:09.213Z,102774.69
2022-10-07T01:07:39.136Z,102776.63
2022-10-07T01:10:11.681Z,102752.91
2022-10-07T01:12:58.010Z,102779.56
2022-10-07T01:15:39.386Z,102778.44
2022-10-07T01:18:17.938Z,102780.84
2022-10-07T01:20:54.877Z,102772.63
2022-10-07T01:23:47.175Z,102747.00
2022-10-07T01:27:02.161Z,102764.44
2022-10-07T01:29:36.965Z,102719.84
2022-10-07T01:32:12.916Z,102735.84
2022-10-07T01:34:44.981Z,102708.00
2022-10-07T01:37:17.524Z,102750.25
2022-10-07T01:39:51.261Z,102745.28
2022-10-07T01:42:21.910Z,102748.06
2022-10-07T01:44:56.207Z,102742.38
2022-10-07T01:47:26.057Z,102667.38
2022-10-07T01:49:54.492Z,102734.13
2022-10-07T01:52:55.893Z,102732.38
2022-10-07T01:55:51.673Z,102696.50
2022-10-07T01:58:38.097Z,102716.88
2022-10-07T02:01:18.564Z,102691.38
2022-10-07T02:04:13.905Z,102704.13
2022-10-07T02:06:53.054Z,102712.63
2022-10-07T02:09:31.475Z,102708.50
2022-10-07T02:12:10.346Z,102677.63
2022-10-07T02:14:46.450Z,102707.66
2022-10-07T02:17:19.440Z,102694.50
2022-10-07T02:19:54.550Z,102693.41
2022-10-07T02:22:27.091Z,102653.59
2022-10-07T02:24:59.265Z,102594.63
2022-10-07T02:27:35.434Z,102671.06
2022-10-07T02:30:11.784Z,102688.25
2022-10-07T02:32:46.299Z,102661.16
2022-10-07T02:35:20.606Z,102683.88
2022-10-07T02:37:54.419Z,102523.81
2022-10-07T02:40:29.499Z,102665.84
2022-10-07T02:43:04.344Z,102663.28
2022-10-07T02:45:43.662Z,102657.25
2022-10-07T02:48:20.625Z,102655.31
2022-10-07T02:50:55.314Z,102654.16
2022-10-07T02:53:27.656Z,102647.97
2022-10-07T02:55:59.211Z,102643.41
2022-10-07T02:58:28.553Z,102629.72
2022-10-07T03:01:02.458Z,102611.00
2022-10-07T03:03:31.369Z,102592.28
2022-10-07T03:06:04.117Z,102641.25
2022-10-07T03:08:33.189Z,102612.41
2022-10-07T03:11:02.471Z,102640.47
2022-10-07T03:13:32.229Z,102631.63
2022-10-07T03:16:05.406Z,102609.75
2022-10-07T03:18:34.514Z,102602.59
2022-10-07T03:21:19.456Z,102563.72
2022-10-07T03:23:53.396Z,102627.72
2022-10-07T03:26:24.129Z,102622.75
2022-10-07T03:28:54.239Z,102626.63
2022-10-07T03:31:24.574Z,102624.06
2022-10-07T03:33:57.412Z,102576.72
2022-10-07T03:36:26.630Z,102614.63
2022-10-07T03:38:55.627Z,102529.50
2022-10-07T03:41:24.868Z,102577.38
2022-10-07T03:43:57.452Z,102615.19
2022-10-07T03:46:28.107Z,102582.97
2022-10-07T03:48:56.484Z,102615.25
2022-10-07T03:51:24.854Z,102609.88
2022-10-07T03:53:54.714Z,102606.03
2022-10-07T03:56:23.352Z,102608.09
2022-10-07T03:58:52.731Z,102604.09
2022-10-07T04:01:21.109Z,102560.31
2022-10-07T04:03:56.006Z,102492.91
2022-10-07T04:06:25.505Z,102563.78
2022-10-07T04:08:56.021Z,102463.75
2022-10-07T04:11:25.237Z,102595.06
2022-10-07T04:13:56.338Z,102607.13
2022-10-07T04:16:27.266Z,102543.97
2022-10-07T04:18:58.828Z,102610.03
2022-10-07T04:21:28.951Z,102592.91
2022-10-07T04:23:57.262Z,102576.94
2022-10-07T04:26:25.589Z,102484.72
2022-10-07T04:28:53.944Z,102596.38
2022-10-07T04:31:24.664Z,102589.56
2022-10-07T04:34:06.768Z,102589.38
2022-10-07T04:36:39.546Z,102592.06
2022-10-07T04:39:14.493Z,102534.88
2022-10-07T04:41:49.674Z,102586.88
2022-10-07T04:44:22.683Z,102544.63
2022-10-07T04:47:03.899Z,102560.03
2022-10-07T04:49:34.119Z,102587.78
2022-10-07T04:52:05.064Z,102564.53
2022-10-07T04:54:39.401Z,102583.25
2022-10-07T04:57:10.097Z,102564.59
2022-10-07T04:59:42.661Z,102592.50
2022-10-07T05:02:13.721Z,102490.59
2022-10-07T05:04:44.238Z,102376.88
2022-10-07T05:07:13.046Z,102552.53
2022-10-07T05:09:42.615Z,102546.56
2022-10-07T05:12:11.416Z,102527.03
2022-10-07T05:14:41.721Z,102544.34
2022-10-07T05:17:11.499Z,102573.38
2022-10-07T05:19:39.898Z,102580.41
2022-10-07T05:22:10.899Z,102478.38
2022-10-07T05:24:39.613Z,102493.19
2022-10-07T05:27:08.093Z,102567.00
2022-10-07T05:29:37.073Z,102564.59
2022-10-07T05:32:05.560Z,102564.81
2022-10-07T05:34:35.006Z,102528.84
2022-10-07T05:37:03.290Z,102565.00
2022-10-07T05:39:32.978Z,102564.59
2022-10-07T05:42:08.255Z,102561.41
2022-10-07T05:44:43.250Z,102542.69
2022-10-07T05:47:13.317Z,102448.59
2022-10-07T05:49:43.250Z,102561.41
2022-10-07T05:52:11.763Z,102555.03
2022-10-07T05:54:42.519Z,102550.69
2022-10-07T05:57:11.843Z,102560.81
2022-10-07T05:59:40.128Z,102547.44
2022-10-07T06:02:08.765Z,102545.78
2022-10-07T06:04:37.299Z,102513.41
2022-10-07T06:07:06.078Z,102544.28
2022-10-07T06:09:52.652Z,102526.28
2022-10-07T06:12:40.217Z,102447.31
2022-10-07T06:15:12.716Z,102521.16
2022-10-07T06:17:45.772Z,102527.38
2022-10-07T06:20:17.989Z,102544.78
2022-10-07T06:22:47.392Z,102526.47
2022-10-07T06:25:17.610Z,102541.47
2022-10-07T06:27:53.812Z,102534.94
2022-10-07T06:30:23.409Z,102543.34
2022-10-07T06:32:51.813Z,102451.53
2022-10-07T06:35:20.565Z,102536.22
2022-10-07T06:37:50.911Z,102485.84
2022-10-07T06:40:19.396Z,102539.28
2022-10-07T06:42:49.307Z,102523.38
2022-10-07T06:45:43.308Z,102545.59
2022-10-07T06:48:14.113Z,102533.16
2022-10-07T06:50:51.990Z,102525.47
2022-10-07T06:53:21.364Z,102511.03
2022-10-07T06:55:51.615Z,102530.47
2022-10-07T06:58:26.030Z,102534.66
2022-10-07T07:00:56.302Z,102515.72
2022-10-07T07:03:25.730Z,102503.31
2022-10-07T07:05:56.321Z,102490.66
2022-10-07T07:08:32.021Z,102471.56
2022-10-07T07:11:06.285Z,102508.03
2022-10-07T07:13:36.146Z,102499.69
2022-10-07T07:16:09.567Z,102465.78
2022-10-07T07:18:38.081Z,102510.19
2022-10-07T07:21:07.774Z,102452.78
2022-10-07T07:23:36.573Z,102521.19
2022-10-07T07:26:04.866Z,102514.56
2022-10-07T07:28:36.611Z,102509.06
2022-10-07T07:31:09.495Z,102509.69
2022-10-07T07:33:38.510Z,102494.91
2022-10-07T07:36:16.517Z,102502.59
2022-10-07T07:38:53.182Z,102450.97
2022-10-07T07:41:24.715Z,102452.50
2022-10-07T07:43:57.432Z,102407.69
2022-10-07T07:46:33.252Z,102449.72
2022-10-07T07:49:01.678Z,102448.81
2022-10-07T07:51:30.941Z,102449.56
2022-10-07T07:53:59.809Z,102492.75
2022-10-07T07:56:31.959Z,102478.63
2022-10-07T07:59:03.562Z,102407.00
2022-10-07T08:01:33.189Z,102465.50
2022-10-07T08:04:03.097Z,102457.81
2022-10-07T08:06:34.533Z,102450.84
2022-10-07T08:09:05.591Z,102474.16
2022-10-07T08:11:35.479Z,102475.19
2022-10-07T08:14:08.211Z,102472.00
2022-10-07T08:16:38.054Z,102391.16
2022-10-07T08:19:07.327Z,102455.75
2022-10-07T08:21:35.794Z,102442.78
2022-10-07T08:24:08.280Z,102448.28
2022-10-07T08:26:39.490Z,102449.00
2022-10-07T08:29:13.280Z,102455.75
2022-10-07T08:31:43.473Z,102399.16
2022-10-07T08:34:12.972Z,102406.03
2022-10-07T08:36:47.154Z,102448.28
2022-10-07T08:39:16.537Z,102422.19
2022-10-07T08:41:59.772Z,102427.94
2022-10-07T08:44:33.888Z,102437.19
2022-10-07T08:47:14.898Z,102420.69
2022-10-07T08:49:56.695Z,102410.16
2022-10-07T08:52:36.634Z,102427.34
2022-10-07T08:55:16.266Z,102423.44
2022-10-07T08:58:04.378Z,102380.09
2022-10-07T09:00:42.775Z,102432.03
2022-10-07T09:03:25.319Z,102420.47
2022-10-07T09:05:57.130Z,102400.53
2022-10-07T09:08:35.317Z,102410.56
2022-10-07T09:11:16.589Z,102417.69
2022-10-07T09:13:49.776Z,102334.41
2022-10-07T09:16:25.652Z,102411.00
2022-10-07T09:18:56.978Z,102400.97
2022-10-07T09:21:33.999Z,102394.31
2022-10-07T09:24:19.230Z,102382.13
2022-10-07T09:26:48.039Z,102355.47
2022-10-07T09:29:20.379Z,102337.72
2022-10-07T09:31:50.432Z,102353.44
2022-10-07T09:34:23.483Z,102363.41
2022-10-07T09:37:22.080Z,102340.38
2022-10-07T09:39:53.287Z,102373.16
2022-10-07T09:42:35.732Z,102367.16
2022-10-07T09:45:27.215Z,102367.28
2022-10-07T09:47:59.883Z,102360.34
2022-10-07T09:50:37.087Z,102331.84
2022-10-07T09:53:17.686Z,102357.56
2022-10-07T09:55:46.549Z,102320.47
2022-10-07T09:58:22.286Z,102313.53
2022-10-07T10:00:53.396Z,102322.53
2022-10-07T10:03:29.694Z,102348.34
2022-10-07T10:06:01.405Z,102311.09
2022-10-07T10:08:33.933Z,102305.81
2022-10-07T10:11:05.050Z,102303.97
2022-10-07T10:13:37.151Z,102288.81
2022-10-07T10:16:28.588Z,102313.56
2022-10-07T10:19:02.256Z,102302.13
2022-10-07T10:21:35.763Z,102328.78
2022-10-07T10:24:07.656Z,102297.84
2022-10-07T10:26:56.631Z,102321.00
2022-10-07T10:29:46.626Z,102267.00
2022-10-07T10:33:10.290Z,102306.31
2022-10-07T10:35:47.706Z,102287.66
2022-10-07T10:38:34.188Z,102301.94
2022-10-07T10:41:17.730Z,102279.78
2022-10-07T10:44:05.844Z,102294.78
2022-10-07T10:46:51.907Z,102290.34
2022-10-07T10:49:30.434Z,102275.34
2022-10-07T10:52:25.915Z,102294.81
2022-10-07T10:55:23.856Z,102284.19
2022-10-07T10:58:03.572Z,102279.84
2022-10-07T11:00:42.140Z,102181.50
2022-10-07T11:03:34.032Z,102263.03
2022-10-07T11:06:07.883Z,102204.56
2022-10-07T11:08:39.568Z,102263.13
2022-10-07T11:11:12.968Z,102217.91
2022-10-07T11:13:47.420Z,102252.50
2022-10-07T11:16:20.415Z,102217.97
2022-10-07T11:18:57.067Z,102182.56
2022-10-07T11:21:32.773Z,102238.31
2022-10-07T11:24:07.437Z,102202.88
2022-10-07T11:26:40.774Z,102190.47
2022-10-07T11:29:21.197Z,102195.78
2022-10-07T11:31:57.374Z,102219.59
2022-10-07T11:34:37.970Z,102162.03
2022-10-07T11:37:16.063Z,102174.44
2022-10-07T11:39:45.815Z,102143.44
2022-10-07T11:42:20.845Z,102198.28
2022-10-07T11:45:00.219Z,102200.06
2022-10-07T11:47:36.219Z,102179.66
2022-10-07T11:50:10.026Z,102175.97
2022-10-07T11:52:46.266Z,102142.34
2022-10-07T11:55:24.393Z,102183.00
2022-10-07T11:57:57.276Z,102175.06
2022-10-07T12:00:30.349Z,102175.97
2022-10-07T12:03:11.885Z,102168.06
2022-10-07T12:06:07.884Z,102152.19
2022-10-07T12:08:38.449Z,102142.38
2022-10-07T12:11:46.999Z,102160.94
2022-10-07T12:14:43.009Z,102154.63
2022-10-07T12:17:30.109Z,102150.78
2022-10-07T12:20:45.126Z,102117.13
2022-10-07T12:24:10.025Z,102131.16
2022-10-07T12:26:52.260Z,102088.91
2022-10-07T12:29:48.491Z,102084.94
2022-10-07T12:32:48.044Z,102093.00
2022-10-07T12:35:41.599Z,102080.63
2022-10-07T12:38:18.096Z,102091.69
2022-10-07T12:40:53.611Z,102103.91
2022-10-07T12:43:43.283Z,102074.78
2022-10-07T12:46:16.284Z,102042.00
2022-10-07T12:48:52.059Z,102067.72
2022-10-07T12:51:28.018Z,102017.44
2022-10-07T12:53:59.651Z,102044.09
2022-10-07T12:56:31.445Z,102058.13
2022-10-07T12:59:48.848Z,102072.22
2022-10-07T13:03:18.134Z,102060.66
2022-10-07T13:06:43.666Z,102067.91
2022-10-07T13:09:34.547Z,102027.50
2022-10-07T13:12:30.799Z,102027.25
2022-10-07T13:15:19.209Z,102054.81
2022-10-07T13:17:52.384Z,102030.00
2022-10-07T13:20:46.923Z,102013.97
2022-10-07T13:23:24.579Z,102015.91
2022-10-07T13:25:58.977Z,102027.25
2022-10-07T13:28:37.112Z,102046.69
2022-10-07T13:31:21.471Z,102036.69
2022-10-07T13:33:50.475Z,102003.97
2022-10-07T13:36:23.664Z,102004.69
2022-10-07T13:38:54.930Z,101979.19
2022-10-07T13:41:27.982Z,101968.25
2022-10-07T13:44:01.084Z,101974.06
2022-10-07T13:46:33.447Z,101960.84
2022-10-07T13:49:03.777Z,101979.75
2022-10-07T13:51:36.630Z,102007.09
2022-10-07T13:54:07.896Z,101999.22
2022-10-07T13:56:41.233Z,101964.72
2022-10-07T13:59:18.071Z,101993.75
2022-10-07T14:01:52.270Z,101940.66
2022-10-07T14:04:26.750Z,101948.66
2022-10-07T14:07:02.349Z,101962.53
2022-10-07T14:09:45.284Z,101985.78
2022-10-07T14:12:18.197Z,101985.03
2022-10-07T14:14:49.648Z,101939.94
2022-10-07T14:17:35.945Z,101943.31
2022-10-07T14:20:07.994Z,101947.94
2022-10-07T14:22:41.772Z,101920.63
2022-10-07T14:25:21.500Z,101937.19
2022-10-07T14:28:15.442Z,101954.03
2022-10-07T14:31:03.320Z,101925.25
2022-10-07T14:34:03.560Z,101957.19
2022-10-07T14:36:31.935Z,101944.84
2022-10-07T14:39:03.907Z,101958.91
2022-10-07T14:41:33.356Z,101951.84
2022-10-07T14:44:04.214Z,101954.63
2022-10-07T14:46:32.561Z,101921.59
2022-10-07T14:49:02.546Z,101895.81
2022-10-07T14:51:31.203Z,101930.78
2022-10-07T14:54:05.917Z,101941.41
2022-10-07T14:56:36.976Z,101914.75
2022-10-07T14:59:06.467Z,101904.97
2022-10-07T15:01:35.153Z,101897.28
2022-10-07T15:04:06.054Z,101886.97
2022-10-07T15:06:35.935Z,101886.31
2022-10-07T15:09:04.877Z,101925.19
2022-10-07T15:11:33.225Z,101913.88
2022-10-07T15:14:01.782Z,101921.06
2022-10-07T15:16:30.472Z,101878.75
2022-10-07T15:18:58.874Z,101893.72
2022-10-07T15:21:29.384Z,101859.41
2022-10-07T15:23:58.242Z,101903.50
2022-10-07T15:26:26.984Z,101900.84
2022-10-07T15:28:56.641Z,101875.41
2022-10-07T15:31:27.907Z,101865.72
2022-10-07T15:33:57.885Z,101842.78
2022-10-07T15:36:31.824Z,101891.38
2022-10-07T15:39:02.359Z,101883.44
2022-10-07T15:41:35.351Z,101889.66
2022-10-07T15:44:07.217Z,101910.91
2022-10-07T15:46:36.096Z,101901.22
2022-10-07T15:49:05.544Z,101902.97
2022-10-07T15:51:36.498Z,101895.84
2022-10-07T15:54:05.869Z,101858.84
2022-10-07T15:56:34.372Z,101870.31
2022-10-07T15:59:03.149Z,101859.75
2022-10-07T16:01:33.045Z,101885.34
2022-10-07T16:04:03.843Z,101869.47
2022-10-07T16:06:36.905Z,101871.22
2022-10-07T16:09:06.321Z,101882.72
2022-10-07T16:11:35.815Z,101865.94
2022-10-07T16:14:04.728Z,101885.38
2022-10-07T16:16:33.904Z,101849.13
2022-10-07T16:19:02.787Z,101859.75
2022-10-07T16:21:34.569Z,101849.16
2022-10-07T16:24:05.847Z,101839.44
2022-10-07T16:26:35.984Z,101874.78
2022-10-07T16:29:24.096Z,101837.66
2022-10-07T16:31:58.192Z,101855.34
2022-10-07T16:34:28.865Z,101872.09
2022-10-07T16:36:59.417Z,101848.28
2022-10-07T16:39:28.020Z,101842.97
2022-10-07T16:41:56.969Z,101843.84
2022-10-07T16:44:25.700Z,101845.59
2022-10-07T16:46:57.115Z,101841.19
2022-10-07T16:49:28.026Z,101850.88
2022-10-07T16:51:58.036Z,101843.78
2022-10-07T16:54:29.777Z,101851.75
2022-10-07T16:56:58.596Z,101831.41
2022-10-07T16:59:27.260Z,101830.50
2022-10-07T17:02:00.157Z,101859.63
2022-10-07T17:04:28.547Z,101872.03
2022-10-07T17:06:58.279Z,101867.63
2022-10-07T17:09:26.695Z,101843.72
2022-10-07T17:11:56.789Z,101822.50
2022-10-07T17:14:25.283Z,101862.19
2022-10-07T17:16:57.105Z,101848.00
2022-10-07T17:19:27.815Z,101849.72
2022-10-07T17:21:59.710Z,101840.88
2022-10-07T17:24:28.578Z,101834.59
2022-10-07T17:26:56.935Z,101800.97
2022-10-07T17:29:26.485Z,101855.75
2022-10-07T17:31:55.575Z,101850.34
2022-10-07T17:34:24.017Z,101853.81
2022-10-07T17:36:52.576Z,101858.22
2022-10-07T17:39:22.535Z,101858.16
2022-10-07T17:41:50.853Z,101825.44
2022-10-07T17:44:21.369Z,101860.78
2022-10-07T17:46:50.246Z,101829.81
2022-10-07T17:49:18.663Z,101855.41
2022-10-07T17:51:46.955Z,101846.50
2022-10-07T17:54:15.882Z,101822.63
2022-10-07T17:56:48.007Z,101804.84
2022-10-07T17:59:16.861Z,101847.97
2022-10-07T18:01:45.567Z,101831.91
2022-10-07T18:04:22.435Z,101868.22
2022-10-07T18:06:53.367Z,101873.47
2022-10-07T18:09:24.155Z,101875.13
2022-10-07T18:12:11.165Z,101867.19
2022-10-07T18:14:57.040Z,101863.78
2022-10-07T18:17:25.373Z,101865.56
2022-10-07T18:19:53.727Z,101868.19
2022-10-07T18:22:22.246Z,101854.00
2022-10-07T18:24:50.642Z,101826.53
2022-10-07T18:27:27.072Z,101830.91
2022-10-07T18:29:55.991Z,101825.53
2022-10-07T18:32:25.517Z,101818.38
2022-10-07T18:34:54.009Z,101800.78
2022-10-07T18:37:23.584Z,101847.69
2022-10-07T18:39:52.508Z,101810.53
2022-10-07T18:42:22.462Z,101815.63
2022-10-07T18:44:52.304Z,101821.72
2022-10-07T18:47:20.739Z,101804.25
2022-10-07T18:49:49.180Z,101778.69
2022-10-07T18:52:18.080Z,101820.25
2022-10-07T18:54:46.445Z,101839.56
2022-10-07T18:57:14.723Z,101668.59
2022-10-07T18:59:44.389Z,101853.47
2022-10-07T19:02:13.041Z,101854.38
2022-10-07T19:04:41.538Z,101842.97
2022-10-07T19:07:09.929Z,101784.44
2022-10-07T19:09:38.257Z,101839.44
2022-10-07T19:12:27.377Z,101814.56
2022-10-07T19:14:56.071Z,101836.81
2022-10-07T19:17:24.434Z,101835.94
2022-10-07T19:19:53.097Z,101832.44
2022-10-07T19:22:21.432Z,101832.44
2022-10-07T19:25:07.395Z,101739.22
2022-10-07T19:27:35.788Z,101802.97
2022-10-07T19:30:07.121Z,101831.28
2022-10-07T19:32:35.497Z,101822.44
2022-10-07T19:35:03.877Z,101815.38
2022-10-07T19:37:32.182Z,101818.91
2022-10-07T19:40:00.656Z,101816.25
2022-10-07T19:42:29.724Z,101824.28
2022-10-07T19:44:58.097Z,101778.94
2022-10-07T19:47:27.957Z,101809.19
2022-10-07T19:49:56.243Z,101819.69
2022-10-07T19:52:26.364Z,101811.72
2022-10-07T19:54:54.975Z,101808.19
2022-10-07T19:57:23.356Z,101761.31
2022-10-07T19:59:52.352Z,101772.78
2022-10-07T20:02:20.703Z,101808.91
2022-10-07T20:04:50.408Z,101817.69
2022-10-07T20:07:19.083Z,101816.06
2022-10-07T20:09:47.476Z,101824.78
2022-10-07T20:12:16.393Z,101814.16
2022-10-07T20:14:45.435Z,101809.78
2022-10-07T20:17:13.758Z,101813.16
2022-10-07T20:19:42.253Z,101808.94
2022-10-07T20:22:12.675Z,101807.97
2022-10-07T20:24:41.014Z,101705.47
2022-10-07T20:27:09.442Z,101746.88
2022-10-07T20:29:57.052Z,101801.66
2022-10-07T20:32:25.989Z,101771.63
2022-10-07T20:34:54.964Z,101763.63
2022-10-07T20:37:24.661Z,101772.56
2022-10-07T20:40:10.540Z,101798.31
2022-10-07T20:42:42.201Z,101807.97
2022-10-07T20:45:13.036Z,101802.59
2022-10-07T20:47:41.334Z,101758.19
2022-10-07T20:50:10.465Z,101785.59
2022-10-07T20:52:40.343Z,101797.97
2022-10-07T20:55:13.969Z,101793.56
2022-10-07T20:57:42.339Z,101758.03
2022-10-07T21:00:16.446Z,101779.28
2022-10-07T21:02:45.682Z,101717.31
2022-10-07T21:05:14.473Z,101746.38
2022-10-07T21:07:44.302Z,101755.41
2022-10-07T21:10:12.605Z,101735.00
2022-10-07T21:12:41.171Z,101789.88
2022-10-07T21:15:10.338Z,101789.84
2022-10-07T21:17:38.776Z,101785.41
2022-10-07T21:20:07.868Z,101786.22
2022-10-07T21:22:36.919Z,101750.00
2022-10-07T21:25:11.583Z,101759.59
2022-10-07T21:27:39.911Z,101649.06
2022-10-07T21:30:11.984Z,101774.63
2022-10-07T21:32:40.259Z,101773.16
2022-10-07T21:35:09.698Z,101763.41
2022-10-07T21:37:38.006Z,101757.88
2022-10-07T21:40:09.293Z,101730.47
2022-10-07T21:42:37.742Z,101753.78
2022-10-07T21:45:07.907Z,101763.56
2022-10-07T21:47:36.167Z,101756.41
2022-10-07T21:50:04.764Z,101691.09
2022-10-07T21:52:33.069Z,101755.00
2022-10-07T21:55:01.515Z,101690.19
2022-10-07T21:57:31.176Z,101675.38
2022-10-07T21:59:59.466Z,101663.06
2022-10-07T22:02:29.280Z,101755.06
2022-10-07T22:04:57.819Z,101748.16
2022-10-07T22:07:43.798Z,101724.19
2022-10-07T22:10:12.132Z,101740.19
2022-10-07T22:12:42.035Z,101678.34
2022-10-07T22:15:11.960Z,101722.63
2022-10-07T22:17:40.308Z,101704.94
2022-10-07T22:20:10.609Z,101747.44
2022-10-07T22:22:38.949Z,101747.53
2022-10-07T22:25:08.922Z,101734.38
2022-10-07T22:27:37.206Z,101712.31
2022-10-07T22:30:09.347Z,101684.13
2022-10-07T22:32:37.685Z,101703.75
2022-10-07T22:35:24.299Z,101729.38
2022-10-07T22:37:52.676Z,101721.47
2022-10-07T22:40:21.825Z,101715.25
2022-10-07T22:42:50.099Z,101720.47
2022-10-07T22:45:20.474Z,101688.69
2022-10-07T22:47:50.953Z,101709.06
2022-10-07T22:50:19.500Z,101706.44
2022-10-07T22:52:48.963Z,101712.44
2022-10-07T22:55:18.074Z,101641.00
2022-10-07T22:57:46.374Z,101675.59
2022-10-07T23:00:16.289Z,101671.03
2022-10-07T23:02:46.465Z,101705.38
2022-10-07T23:05:15.206Z,101690.47
2022-10-07T23:07:43.500Z,101682.47
2022-10-07T23:10:11.834Z,101706.19
2022-10-07T23:12:40.221Z,101678.84
2022-10-07T23:15:09.511Z,101701.84
2022-10-07T23:17:37.942Z,101705.47
2022-10-07T23:20:09.480Z,101638.34
2022-10-07T23:22:40.047Z,101704.81
2022-10-07T23:25:09.725Z,101693.34
2022-10-07T23:27:40.064Z,101656.28
2022-10-07T23:30:11.141Z,101683.63
2022-10-07T23:32:39.533Z,101695.91
2022-10-07T23:35:11.616Z,101693.34
2022-10-07T23:37:40.129Z,101699.53
2022-10-07T23:40:10.299Z,101687.19
2022-10-07T23:42:38.590Z,101702.38
2022-10-07T23:45:08.164Z,101664.34
2022-10-07T23:47:36.374Z,101694.38
2022-10-07T23:50:06.054Z,101708.34
2022-10-07T23:52:35.639Z,101701.41
2022-10-07T23:55:03.914Z,101701.25
2022-10-07T23:57:32.262Z,101719.84
